Terminal Aerodrome Forecast
Issued by NWS

Home | Current Version | Previous Version | Text Only | Print | Product List | Glossary On
Versions: 1 2 3 4 5 6 7 8 9 10 11 12 13 14 15 16 17 18
000
FTUS41 KBGM 230303 AAA
TAFRME
TAF AMD
KRME 230303Z 2303/2324 VRB04KT P6SM BKN035 OVC060
      TEMPO 2303/2306 BKN025
     FM230800 28008KT P6SM SCT150
     FM231400 28012KT P6SM BKN040
     FM232300 29005KT P6SM OVC100=

USA.gov is the U.S. government's official web portal to all federal, state and local government web resources and services.